createdAt,value
2018-07-10T00:02:33.953Z,56.50
2018-07-10T00:05:46.433Z,56.70
2018-07-10T00:09:02.286Z,56.90
2018-07-10T00:12:06.308Z,57.00
2018-07-10T00:15:10.182Z,57.20
2018-07-10T00:18:14.060Z,57.20
2018-07-10T00:21:18.324Z,57.40
2018-07-10T00:24:22.332Z,57.40
2018-07-10T00:27:26.389Z,57.40
2018-07-10T00:30:30.350Z,57.60
2018-07-10T00:33:34.299Z,57.70
2018-07-10T00:36:38.243Z,57.90
2018-07-10T00:39:42.291Z,58.00
2018-07-10T00:42:46.326Z,58.40
2018-07-10T00:45:50.312Z,58.70
2018-07-10T00:48:54.331Z,58.60
2018-07-10T00:51:58.392Z,58.80
2018-07-10T00:55:03.048Z,58.90
2018-07-10T00:58:07.064Z,58.90
2018-07-10T01:01:11.035Z,59.00
2018-07-10T01:04:15.086Z,59.00
2018-07-10T01:07:19.047Z,59.10
2018-07-10T01:10:23.039Z,59.40
2018-07-10T01:13:27.160Z,59.60
2018-07-10T01:16:35.960Z,60.20
2018-07-10T01:19:40.008Z,59.40
2018-07-10T01:22:44.078Z,59.30
2018-07-10T01:25:48.278Z,59.20
2018-07-10T01:28:52.346Z,59.40
2018-07-10T01:31:56.641Z,60.40
2018-07-10T01:35:00.668Z,59.80
2018-07-10T01:38:04.801Z,59.70
2018-07-10T01:41:08.855Z,59.90
2018-07-10T01:44:12.904Z,59.90
2018-07-10T01:47:16.962Z,60.10
2018-07-10T01:50:20.981Z,60.80
2018-07-10T01:53:25.097Z,60.70
2018-07-10T01:56:29.352Z,60.30
2018-07-10T01:59:33.332Z,60.00
2018-07-10T02:02:37.323Z,59.90
2018-07-10T02:05:42.126Z,59.90
2018-07-10T02:08:46.184Z,59.80
2018-07-10T02:11:50.302Z,59.80
2018-07-10T02:14:54.319Z,59.90
2018-07-10T02:17:58.639Z,60.20
2018-07-10T02:21:05.146Z,60.40
2018-07-10T02:24:09.168Z,60.80
2018-07-10T02:27:13.259Z,61.00
2018-07-10T02:30:17.228Z,61.00
2018-07-10T02:33:21.281Z,61.30
2018-07-10T02:36:25.340Z,61.20
2018-07-10T02:39:29.396Z,61.40
2018-07-10T02:42:33.850Z,61.40
2018-07-10T02:45:37.899Z,61.50
2018-07-10T02:48:42.014Z,61.50
2018-07-10T02:51:48.426Z,61.60
2018-07-10T02:54:52.470Z,61.70
2018-07-10T02:57:56.484Z,61.70
2018-07-10T03:01:00.588Z,61.90
2018-07-10T03:04:04.943Z,62.10
2018-07-10T03:07:09.989Z,62.30
2018-07-10T03:10:14.075Z,62.50
2018-07-10T03:13:18.137Z,62.50
2018-07-10T03:16:22.144Z,62.40
2018-07-10T03:19:26.590Z,62.40
2018-07-10T03:22:30.605Z,62.70
2018-07-10T03:25:34.687Z,62.80
2018-07-10T03:28:38.708Z,63.00
2018-07-10T03:31:42.799Z,63.00
2018-07-10T03:34:46.695Z,63.30
2018-07-10T03:37:50.745Z,63.40
2018-07-10T03:40:54.763Z,63.80
2018-07-10T03:43:58.848Z,64.00
2018-07-10T03:47:02.894Z,63.70
2018-07-10T03:50:06.907Z,64.00
2018-07-10T03:53:11.010Z,64.70
2018-07-10T03:56:15.073Z,64.60
2018-07-10T03:59:19.261Z,64.70
2018-07-10T04:02:25.161Z,64.60
2018-07-10T04:05:29.271Z,64.20
2018-07-10T04:08:33.264Z,63.90
2018-07-10T04:11:40.676Z,63.50
2018-07-10T04:14:45.593Z,62.60
2018-07-10T04:18:22.515Z,62.30
2018-07-10T04:21:29.284Z,61.80
2018-07-10T04:24:33.385Z,61.50
2018-07-10T04:27:47.218Z,61.40
2018-07-10T04:31:12.898Z,61.30
2018-07-10T04:34:16.967Z,61.30
2018-07-10T04:37:21.033Z,61.20
2018-07-10T04:40:26.162Z,60.90
2018-07-10T04:43:31.741Z,60.70
2018-07-10T04:46:37.511Z,60.50
2018-07-10T04:49:52.393Z,60.50
2018-07-10T04:53:09.935Z,60.50
2018-07-10T04:56:14.823Z,60.70
2018-07-10T04:59:18.906Z,60.40
2018-07-10T05:02:23.801Z,60.40
2018-07-10T05:05:29.796Z,60.40
2018-07-10T05:08:33.872Z,60.30
2018-07-10T05:11:42.584Z,60.40
2018-07-10T05:14:48.815Z,60.10
2018-07-10T05:17:54.272Z,59.70
2018-07-10T05:20:58.704Z,59.60
2018-07-10T05:24:02.807Z,59.20
2018-07-10T05:27:06.834Z,59.00
2018-07-10T05:30:10.795Z,58.80
2018-07-10T05:33:15.992Z,58.60
2018-07-10T05:36:21.868Z,58.30
2018-07-10T05:39:25.939Z,57.90
2018-07-10T05:42:30.063Z,57.40
2018-07-10T05:45:34.097Z,57.10
2018-07-10T05:48:38.226Z,56.70
2018-07-10T05:51:46.997Z,56.40
2018-07-10T05:54:51.087Z,56.30
2018-07-10T05:57:55.590Z,56.40
2018-07-10T06:00:59.728Z,56.00
2018-07-10T06:04:03.992Z,55.60
2018-07-10T06:07:08.241Z,55.60
2018-07-10T06:10:12.370Z,55.60
2018-07-10T06:13:16.454Z,55.50
2018-07-10T06:16:21.308Z,54.20
2018-07-10T06:19:25.341Z,53.00
2018-07-10T06:22:29.234Z,51.80
2018-07-10T06:25:34.955Z,50.80
2018-07-10T06:28:43.231Z,50.20
2018-07-10T06:31:57.094Z,49.30
2018-07-10T06:35:08.105Z,48.90
2018-07-10T06:38:15.170Z,48.90
2018-07-10T06:41:19.156Z,49.00
2018-07-10T06:44:23.776Z,48.50
2018-07-10T06:47:29.545Z,49.00
2018-07-10T06:50:36.394Z,49.00
2018-07-10T06:53:40.530Z,49.10
2018-07-10T06:56:47.042Z,49.20
2018-07-10T06:59:51.032Z,49.10
2018-07-10T07:02:55.110Z,48.80
2018-07-10T07:05:59.091Z,48.70
2018-07-10T07:09:03.370Z,48.10
2018-07-10T07:12:07.384Z,47.90
2018-07-10T07:15:13.243Z,47.60
2018-07-10T07:18:17.289Z,47.10
2018-07-10T07:21:21.302Z,46.70
2018-07-10T07:24:25.491Z,46.20
2018-07-10T07:27:29.512Z,45.40
2018-07-10T07:30:33.551Z,45.00
2018-07-10T07:33:37.583Z,43.80
2018-07-10T07:36:41.616Z,43.30
2018-07-10T07:39:46.234Z,42.70
2018-07-10T07:42:50.319Z,41.40
2018-07-10T07:45:54.244Z,39.80
2018-07-10T07:48:58.250Z,39.40
2018-07-10T07:52:02.365Z,38.40
2018-07-10T07:55:06.428Z,38.50
2018-07-10T07:58:11.056Z,38.50
2018-07-10T08:01:14.974Z,38.50
2018-07-10T08:04:19.069Z,38.50
2018-07-10T08:07:24.260Z,36.90
2018-07-10T08:10:28.639Z,36.50
2018-07-10T08:13:32.915Z,34.80
2018-07-10T08:16:36.960Z,33.70
2018-07-10T08:19:41.529Z,32.80
2018-07-10T08:22:45.548Z,33.20
2018-07-10T08:25:49.636Z,32.30
2018-07-10T08:28:54.842Z,32.20
2018-07-10T08:31:58.971Z,32.10
2018-07-10T08:35:03.092Z,32.10
2018-07-10T08:38:07.124Z,31.10
2018-07-10T08:41:26.649Z,32.70
2018-07-10T08:44:30.692Z,32.90
2018-07-10T08:47:35.476Z,32.60
2018-07-10T08:50:39.568Z,32.20
2018-07-10T08:53:43.616Z,31.00
2018-07-10T08:56:47.645Z,30.70
2018-07-10T08:59:52.084Z,29.60
2018-07-10T09:02:56.207Z,30.90
2018-07-10T09:06:00.291Z,31.50
2018-07-10T09:09:05.038Z,32.80
2018-07-10T09:12:09.132Z,32.30
2018-07-10T09:15:13.202Z,32.90
2018-07-10T09:18:17.512Z,34.10
2018-07-10T09:21:21.529Z,34.30
2018-07-10T09:24:25.648Z,36.00
2018-07-10T09:27:29.687Z,36.50
2018-07-10T09:30:33.743Z,35.60
2018-07-10T09:33:37.937Z,35.80
2018-07-10T09:36:41.974Z,33.70
2018-07-10T09:39:46.138Z,33.20
2018-07-10T09:43:01.441Z,32.90
2018-07-10T09:46:06.123Z,32.70
2018-07-10T09:49:10.292Z,32.70
2018-07-10T09:52:14.422Z,31.60
2018-07-10T09:55:18.488Z,30.50
2018-07-10T09:58:22.964Z,30.90
2018-07-10T10:01:34.788Z,30.00
2018-07-10T10:04:38.915Z,30.50
2018-07-10T10:07:43.026Z,30.70
2018-07-10T10:10:47.002Z,31.20
2018-07-10T10:13:51.099Z,31.30
2018-07-10T10:16:55.078Z,32.00
2018-07-10T10:19:59.677Z,31.70
2018-07-10T10:23:04.201Z,30.70
2018-07-10T10:26:08.283Z,30.40
2018-07-10T10:29:12.283Z,30.00
2018-07-10T10:32:16.313Z,29.20
2018-07-10T10:35:20.408Z,29.20
2018-07-10T10:38:24.561Z,29.30
2018-07-10T10:41:29.118Z,29.70
2018-07-10T10:44:33.863Z,29.60
2018-07-10T10:47:37.918Z,29.60
2018-07-10T10:50:46.974Z,30.30
2018-07-10T10:53:51.616Z,31.10
2018-07-10T10:56:55.688Z,30.60
2018-07-10T10:59:59.731Z,31.20
2018-07-10T11:03:04.819Z,31.10
2018-07-10T11:06:09.021Z,30.30
2018-07-10T11:09:13.732Z,30.80
2018-07-10T11:12:18.078Z,30.70
2018-07-10T11:15:22.339Z,30.90
2018-07-10T11:18:43.340Z,30.50
2018-07-10T11:22:21.610Z,30.40
2018-07-10T11:25:28.413Z,30.00
2018-07-10T11:28:32.722Z,29.70
2018-07-10T11:31:37.473Z,29.10
2018-07-10T11:34:41.481Z,28.80
2018-07-10T11:37:45.644Z,28.20
2018-07-10T11:40:49.655Z,28.70
2018-07-10T11:43:53.670Z,28.90
2018-07-10T11:46:57.675Z,29.70
2018-07-10T11:50:01.805Z,29.70
2018-07-10T11:53:05.896Z,29.80
2018-07-10T11:56:09.924Z,30.10
2018-07-10T11:59:13.960Z,29.80
2018-07-10T12:02:18.037Z,30.00
2018-07-10T12:05:22.478Z,29.70
2018-07-10T12:08:26.531Z,29.50
2018-07-10T12:11:32.054Z,30.00
2018-07-10T12:14:36.119Z,30.50
2018-07-10T12:17:40.815Z,29.60
2018-07-10T12:20:45.120Z,29.30
2018-07-10T12:23:49.152Z,28.70
2018-07-10T12:26:53.169Z,28.30
2018-07-10T12:29:57.285Z,28.00
2018-07-10T12:33:01.289Z,27.50
2018-07-10T12:36:05.467Z,27.60
2018-07-10T12:39:09.447Z,27.80
2018-07-10T12:42:13.909Z,28.00
2018-07-10T12:45:18.034Z,27.90
2018-07-10T12:48:22.117Z,28.60
2018-07-10T12:51:26.960Z,29.10
2018-07-10T12:54:31.955Z,28.80
2018-07-10T12:57:42.121Z,29.20
2018-07-10T13:00:46.235Z,29.60
2018-07-10T13:03:50.917Z,29.30
2018-07-10T13:06:54.985Z,29.50
2018-07-10T13:09:59.102Z,29.20
2018-07-10T13:13:03.252Z,29.20
2018-07-10T13:16:07.338Z,29.50
2018-07-10T13:19:13.311Z,29.20
2018-07-10T13:22:17.428Z,28.70
2018-07-10T13:25:21.534Z,28.60
2018-07-10T13:28:25.559Z,29.70
2018-07-10T13:31:29.606Z,30.50
2018-07-10T13:34:33.669Z,31.30
2018-07-10T13:37:40.926Z,31.10
2018-07-10T13:40:44.986Z,31.70
2018-07-10T13:43:49.143Z,32.60
2018-07-10T13:46:53.274Z,33.50
2018-07-10T13:49:57.330Z,33.00
2018-07-10T13:53:02.305Z,33.40
2018-07-10T13:56:06.305Z,33.90
2018-07-10T13:59:10.402Z,33.50
2018-07-10T14:02:14.429Z,33.40
2018-07-10T14:05:18.576Z,33.90
2018-07-10T14:08:22.576Z,34.00
2018-07-10T14:11:26.608Z,34.10
2018-07-10T14:14:30.644Z,34.20
2018-07-10T14:17:34.706Z,34.40
2018-07-10T14:20:45.122Z,34.50
2018-07-10T14:23:49.221Z,33.80
2018-07-10T14:26:53.185Z,34.00
2018-07-10T14:29:57.223Z,33.90
2018-07-10T14:33:01.375Z,33.60
2018-07-10T14:36:05.343Z,33.50
2018-07-10T14:39:09.471Z,33.10
2018-07-10T14:42:13.585Z,34.00
2018-07-10T14:45:17.654Z,35.10
2018-07-10T14:48:23.910Z,35.60
2018-07-10T14:51:36.710Z,36.30
2018-07-10T14:54:41.262Z,37.10
2018-07-10T14:57:45.804Z,37.80
2018-07-10T15:00:49.926Z,37.50
2018-07-10T15:03:53.905Z,37.30
2018-07-10T15:06:57.997Z,37.10
2018-07-10T15:10:01.992Z,37.10
2018-07-10T15:13:05.988Z,37.20
2018-07-10T15:16:09.964Z,37.90
2018-07-10T15:19:15.343Z,37.70
2018-07-10T15:22:19.302Z,38.20
2018-07-10T15:25:23.413Z,38.70
2018-07-10T15:28:27.362Z,38.50
2018-07-10T15:31:31.578Z,38.80
2018-07-10T15:34:35.622Z,38.80
2018-07-10T15:37:40.004Z,39.00
2018-07-10T15:40:43.999Z,38.60
2018-07-10T15:43:48.382Z,38.10
2018-07-10T15:46:52.393Z,38.30
2018-07-10T15:49:56.467Z,39.30
2018-07-10T15:53:00.579Z,40.10
2018-07-10T15:56:04.657Z,40.40
2018-07-10T15:59:09.045Z,42.30
2018-07-10T16:02:13.141Z,42.80
2018-07-10T16:05:17.211Z,43.40
2018-07-10T16:08:21.608Z,43.70
2018-07-10T16:11:26.252Z,43.90
2018-07-10T16:14:30.464Z,44.20
2018-07-10T16:17:35.733Z,44.50
2018-07-10T16:20:42.403Z,44.70
2018-07-10T16:23:46.472Z,45.00
2018-07-10T16:26:50.518Z,45.20
2018-07-10T16:29:54.655Z,45.40
2018-07-10T16:33:00.632Z,45.50
2018-07-10T16:36:06.444Z,45.70
2018-07-10T16:39:10.457Z,46.90
2018-07-10T16:42:19.602Z,48.20
2018-07-10T16:45:30.885Z,49.50
2018-07-10T16:48:44.052Z,52.40
2018-07-10T16:52:11.848Z,54.60
2018-07-10T16:55:15.908Z,56.90
2018-07-10T16:58:19.916Z,59.20
2018-07-10T17:01:25.495Z,59.80
2018-07-10T17:04:29.614Z,60.70
2018-07-10T17:07:33.793Z,61.00
2018-07-10T17:10:37.871Z,61.40
2018-07-10T17:13:41.874Z,60.90
2018-07-10T17:16:45.963Z,61.60
2018-07-10T17:19:50.004Z,62.10
2018-07-10T17:22:54.064Z,61.20
2018-07-10T17:25:58.162Z,61.40
2018-07-10T17:29:07.132Z,61.20
2018-07-10T17:32:11.229Z,61.60
2018-07-10T17:35:15.387Z,61.50
2018-07-10T17:38:19.574Z,61.70
2018-07-10T17:41:25.273Z,62.20
2018-07-10T17:44:29.341Z,62.50
2018-07-10T17:47:33.985Z,62.60
2018-07-10T17:50:38.167Z,62.20
2018-07-10T17:53:42.201Z,62.70
2018-07-10T17:56:46.275Z,63.50
2018-07-10T17:59:50.700Z,63.70
2018-07-10T18:02:55.305Z,62.90
2018-07-10T18:06:00.071Z,63.50
2018-07-10T18:09:04.918Z,64.10
2018-07-10T18:12:09.162Z,64.90
2018-07-10T18:15:13.332Z,64.60
2018-07-10T18:18:17.530Z,64.90
2018-07-10T18:21:21.610Z,65.00
2018-07-10T18:24:25.901Z,65.00
2018-07-10T18:27:30.359Z,65.50
2018-07-10T18:30:34.551Z,65.60
2018-07-10T18:33:38.759Z,65.60
2018-07-10T18:36:42.881Z,66.70
2018-07-10T18:39:46.981Z,65.40
2018-07-10T18:42:51.108Z,65.20
2018-07-10T18:45:55.260Z,65.50
2018-07-10T18:48:59.405Z,63.70
2018-07-10T18:52:03.513Z,61.20
2018-07-10T18:55:07.789Z,61.40
2018-07-10T18:59:17.318Z,61.30
2018-07-10T19:02:28.179Z,60.60
2018-07-10T19:05:32.339Z,60.70
2018-07-10T19:08:36.567Z,61.30
2018-07-10T19:11:40.846Z,62.20
2018-07-10T19:14:45.181Z,61.80
2018-07-10T19:17:49.335Z,61.40
2018-07-10T19:21:04.878Z,59.80
2018-07-10T19:24:16.396Z,59.40
2018-07-10T19:27:28.901Z,58.80
2018-07-10T19:30:36.906Z,58.10
2018-07-10T19:33:42.815Z,58.20
2018-07-10T19:36:48.316Z,58.70
2018-07-10T19:39:52.363Z,58.10
2018-07-10T19:42:56.911Z,58.10
2018-07-10T19:46:01.105Z,57.50
2018-07-10T19:49:06.879Z,57.30
2018-07-10T19:52:11.025Z,57.10
2018-07-10T19:55:15.429Z,57.30
2018-07-10T19:58:26.800Z,56.90
2018-07-10T20:01:40.698Z,56.80
2018-07-10T20:04:52.795Z,56.10
2018-07-10T20:08:08.064Z,56.20
2018-07-10T20:11:12.373Z,55.70
2018-07-10T20:14:18.748Z,56.00
2018-07-10T20:17:24.800Z,56.40
2018-07-10T20:20:30.729Z,56.80
2018-07-10T20:24:38.967Z,57.10
2018-07-10T20:27:50.330Z,57.00
2018-07-10T20:31:07.780Z,57.40
2018-07-10T20:34:32.730Z,57.20
2018-07-10T20:37:38.082Z,57.50
2018-07-10T20:40:42.720Z,58.10
2018-07-10T20:43:48.616Z,58.30
2018-07-10T20:47:03.366Z,58.30
2018-07-10T20:50:07.360Z,58.60
2018-07-10T20:53:21.218Z,58.60
2018-07-10T20:56:32.395Z,58.40
2018-07-10T20:59:53.264Z,59.40
2018-07-10T21:03:08.417Z,59.70
2018-07-10T21:06:22.190Z,60.20
2018-07-10T21:09:37.309Z,60.00
2018-07-10T21:12:56.531Z,60.80
2018-07-10T21:16:19.486Z,62.90
2018-07-10T21:19:31.100Z,63.20
2018-07-10T21:22:58.741Z,63.40
2018-07-10T21:26:10.717Z,63.50
2018-07-10T21:31:24.722Z,63.20
2018-07-10T21:34:39.695Z,64.10
2018-07-10T21:40:01.904Z,65.10
2018-07-10T21:43:14.645Z,65.50
2018-07-10T21:46:36.293Z,66.50
2018-07-10T21:49:50.409Z,67.60
2018-07-10T21:52:54.964Z,67.50
2018-07-10T21:55:59.066Z,68.20
2018-07-10T21:59:03.155Z,68.60
2018-07-10T22:02:09.429Z,68.90
2018-07-10T22:05:13.514Z,69.00
2018-07-10T22:08:17.572Z,68.70
2018-07-10T22:11:21.627Z,69.30
2018-07-10T22:14:25.961Z,69.40
2018-07-10T22:17:30.263Z,68.80
2018-07-10T22:20:34.459Z,68.90
2018-07-10T22:23:38.565Z,69.10
2018-07-10T22:26:42.606Z,68.90
2018-07-10T22:29:52.683Z,69.20
2018-07-10T22:33:01.991Z,68.90
2018-07-10T22:36:06.133Z,68.80
2018-07-10T22:39:10.322Z,69.00
2018-07-10T22:42:14.412Z,69.30
2018-07-10T22:45:19.260Z,70.10
2018-07-10T22:48:23.406Z,70.00
2018-07-10T22:51:27.623Z,70.10
2018-07-10T22:57:37.822Z,71.30
2018-07-10T23:00:41.951Z,70.40
2018-07-10T23:03:46.035Z,71.20
2018-07-10T23:06:50.105Z,71.40
2018-07-10T23:09:54.222Z,71.70
2018-07-10T23:12:58.282Z,71.40
2018-07-10T23:16:02.308Z,71.70
2018-07-10T23:19:07.054Z,71.70
2018-07-10T23:22:11.106Z,71.90
2018-07-10T23:25:15.230Z,72.20
2018-07-10T23:28:19.238Z,72.40
2018-07-10T23:31:27.184Z,72.30
2018-07-10T23:34:31.486Z,72.10
2018-07-10T23:37:37.493Z,72.10
2018-07-10T23:40:42.772Z,72.80
2018-07-10T23:43:48.422Z,72.80
2018-07-10T23:47:07.427Z,72.60
2018-07-10T23:50:18.399Z,73.20
2018-07-10T23:53:49.111Z,72.30
2018-07-10T23:56:54.128Z,72.40
2018-07-10T23:59:58.129Z,72.40
